sensor_id;sensor_type;location;lat;lon;timestamp;pressure;altitude;pressure_sealevel;temperature
85302;BMP280;75707;46.948;7.410;2024-02-26T00:00:27;934.8233643;;;7.604675293
85302;BMP280;75707;46.948;7.410;2024-02-26T00:01:31;934.821106;;;7.584533691
85302;BMP280;75707;46.948;7.410;2024-02-26T00:02:29;934.8168945;;;7.604675293
85302;BMP280;75707;46.948;7.410;2024-02-26T00:03:30;934.836731;;;7.584533691
85302;BMP280;75707;46.948;7.410;2024-02-26T00:04:35;934.7835693;;;7.574462891
85302;BMP280;75707;46.948;7.410;2024-02-26T00:06:33;934.8328247;;;7.574462891
85302;BMP280;75707;46.948;7.410;2024-02-26T00:07:34;934.8395386;;;7.604675293
85302;BMP280;75707;46.948;7.410;2024-02-26T00:08:35;934.748291;;;7.574462891
85302;BMP280;75707;46.948;7.410;2024-02-26T00:09:36;934.7138062;;;7.524108887
85302;BMP280;75707;46.948;7.410;2024-02-26T00:10:37;934.7243652;;;7.524108887
85302;BMP280;75707;46.948;7.410;2024-02-26T00:11:38;934.6960449;;;7.554321289
85302;BMP280;75707;46.948;7.410;2024-02-26T00:12:39;934.6702271;;;7.584533691
85302;BMP280;75707;46.948;7.410;2024-02-26T00:13:39;934.6260986;;;7.584533691
85302;BMP280;75707;46.948;7.410;2024-02-26T00:14:40;934.6011963;;;7.655029297
85302;BMP280;75707;46.948;7.410;2024-02-26T00:15:41;934.5795288;;;7.685241699
85302;BMP280;75707;46.948;7.410;2024-02-26T00:16:42;934.5949097;;;7.685241699
85302;BMP280;75707;46.948;7.410;2024-02-26T00:17:42;934.6989746;;;7.6953125
85302;BMP280;75707;46.948;7.410;2024-02-26T00:18:43;934.6032104;;;7.705383301
85302;BMP280;75707;46.948;7.410;2024-02-26T00:19:44;934.557373;;;7.705383301
85302;BMP280;75707;46.948;7.410;2024-02-26T00:20:45;934.5928345;;;7.705383301
85302;BMP280;75707;46.948;7.410;2024-02-26T00:21:46;934.579834;;;7.705383301
85302;BMP280;75707;46.948;7.410;2024-02-26T00:23:22;934.5726318;;;7.705383301
85302;BMP280;75707;46.948;7.410;2024-02-26T00:24:23;934.5968628;;;7.705383301
85302;BMP280;75707;46.948;7.410;2024-02-26T00:25:23;934.6348267;;;7.725524902
85302;BMP280;75707;46.948;7.410;2024-02-26T00:26:24;934.6373291;;;7.755737305
85302;BMP280;75707;46.948;7.410;2024-02-26T00:28:22;934.6356812;;;7.755737305
85302;BMP280;75707;46.948;7.410;2024-02-26T00:29:23;934.5535889;;;7.725524902
85302;BMP280;75707;46.948;7.410;2024-02-26T00:30:24;934.4649048;;;7.705383301
85302;BMP280;75707;46.948;7.410;2024-02-26T00:31:25;934.4417114;;;7.6953125
85302;BMP280;75707;46.948;7.410;2024-02-26T00:32:26;934.4456177;;;7.705383301
85302;BMP280;75707;46.948;7.410;2024-02-26T00:33:26;934.4707031;;;7.705383301
85302;BMP280;75707;46.948;7.410;2024-02-26T00:34:27;934.5039063;;;7.735595703
85302;BMP280;75707;46.948;7.410;2024-02-26T00:35:28;934.4909668;;;7.725524902
85302;BMP280;75707;46.948;7.410;2024-02-26T00:36:29;934.5560913;;;7.705383301
85302;BMP280;75707;46.948;7.410;2024-02-26T00:37:30;934.5857544;;;7.735595703
85302;BMP280;75707;46.948;7.410;2024-02-26T00:38:31;934.6367188;;;7.735595703
85302;BMP280;75707;46.948;7.410;2024-02-26T00:39:32;934.6495361;;;7.735595703
85302;BMP280;75707;46.948;7.410;2024-02-26T00:40:32;934.6624756;;;7.6953125
85302;BMP280;75707;46.948;7.410;2024-02-26T00:41:37;934.6247559;;;7.685241699
85302;BMP280;75707;46.948;7.410;2024-02-26T00:42:34;934.6102295;;;7.685241699
85302;BMP280;75707;46.948;7.410;2024-02-26T00:43:35;934.5809326;;;7.685241699
85302;BMP280;75707;46.948;7.410;2024-02-26T00:44:36;934.5754395;;;7.685241699
85302;BMP280;75707;46.948;7.410;2024-02-26T00:45:37;934.5397949;;;7.655029297
85302;BMP280;75707;46.948;7.410;2024-02-26T00:46:38;934.515625;;;7.655029297
85302;BMP280;75707;46.948;7.410;2024-02-26T00:47:39;934.5390625;;;7.655029297
85302;BMP280;75707;46.948;7.410;2024-02-26T00:48:39;934.4801636;;;7.685241699
85302;BMP280;75707;46.948;7.410;2024-02-26T00:49:40;934.5197754;;;7.665100098
85302;BMP280;75707;46.948;7.410;2024-02-26T00:50:41;934.5213013;;;7.705383301
85302;BMP280;75707;46.948;7.410;2024-02-26T00:51:42;934.5351563;;;7.705383301
85302;BMP280;75707;46.948;7.410;2024-02-26T00:52:43;934.5255737;;;7.6953125
85302;BMP280;75707;46.948;7.410;2024-02-26T00:53:44;934.5310059;;;7.725524902
85302;BMP280;75707;46.948;7.410;2024-02-26T00:54:45;934.5245361;;;7.735595703
85302;BMP280;75707;46.948;7.410;2024-02-26T00:55:45;934.5119629;;;7.735595703
85302;BMP280;75707;46.948;7.410;2024-02-26T00:56:46;934.5237427;;;7.785949707
85302;BMP280;75707;46.948;7.410;2024-02-26T00:58:22;934.4835205;;;7.806091309
85302;BMP280;75707;46.948;7.410;2024-02-26T00:59:23;934.4989014;;;7.785949707
85302;BMP280;75707;46.948;7.410;2024-02-26T01:00:23;934.5392456;;;7.765808105
85302;BMP280;75707;46.948;7.410;2024-02-26T01:02:21;934.4876709;;;7.765808105
85302;BMP280;75707;46.948;7.410;2024-02-26T01:03:22;934.4338379;;;7.785949707
85302;BMP280;75707;46.948;7.410;2024-02-26T01:04:23;934.4499512;;;7.755737305
85302;BMP280;75707;46.948;7.410;2024-02-26T01:05:23;934.4103394;;;7.705383301
85302;BMP280;75707;46.948;7.410;2024-02-26T01:06:24;934.3901367;;;7.655029297
85302;BMP280;75707;46.948;7.410;2024-02-26T01:07:25;934.414978;;;7.584533691
85302;BMP280;75707;46.948;7.410;2024-02-26T01:08:26;934.4641113;;;7.514038086
85302;BMP280;75707;46.948;7.410;2024-02-26T01:09:27;934.4921875;;;7.503967285
85302;BMP280;75707;46.948;7.410;2024-02-26T01:10:28;934.4057007;;;7.453613281
85302;BMP280;75707;46.948;7.410;2024-02-26T01:11:29;934.395752;;;7.373046875
85302;BMP280;75707;46.948;7.410;2024-02-26T01:12:30;934.4191284;;;7.342834473
85302;BMP280;75707;46.948;7.410;2024-02-26T01:13:31;934.4134521;;;7.332763672
85302;BMP280;75707;46.948;7.410;2024-02-26T01:14:32;934.4245605;;;7.342834473
85302;BMP280;75707;46.948;7.410;2024-02-26T01:15:33;934.4960938;;;7.362976074
85302;BMP280;75707;46.948;7.410;2024-02-26T01:16:34;934.5631104;;;7.413330078
85302;BMP280;75707;46.948;7.410;2024-02-26T01:17:35;934.4414063;;;7.393188477
85302;BMP280;75707;46.948;7.410;2024-02-26T01:18:36;934.4871216;;;7.423400879
85302;BMP280;75707;46.948;7.410;2024-02-26T01:19:37;934.4816284;;;7.423400879
85302;BMP280;75707;46.948;7.410;2024-02-26T01:20:38;934.454834;;;7.44354248
85302;BMP280;75707;46.948;7.410;2024-02-26T01:21:39;934.512207;;;7.483825684
85302;BMP280;75707;46.948;7.410;2024-02-26T01:22:40;934.5491943;;;7.514038086
85302;BMP280;75707;46.948;7.410;2024-02-26T01:23:41;934.4979858;;;7.544250488
85302;BMP280;75707;46.948;7.410;2024-02-26T01:24:42;934.4875488;;;7.574462891
85302;BMP280;75707;46.948;7.410;2024-02-26T01:25:43;934.4849854;;;7.604675293
85302;BMP280;75707;46.948;7.410;2024-02-26T01:26:44;934.4732666;;;7.634887695
85302;BMP280;75707;46.948;7.410;2024-02-26T01:27:45;934.4595947;;;7.665100098
85302;BMP280;75707;46.948;7.410;2024-02-26T01:29:21;934.4073486;;;7.685241699
85302;BMP280;75707;46.948;7.410;2024-02-26T01:30:22;934.3873291;;;7.705383301
85302;BMP280;75707;46.948;7.410;2024-02-26T01:31:23;934.4301758;;;7.725524902
85302;BMP280;75707;46.948;7.410;2024-02-26T01:32:23;934.4439087;;;7.705383301
85302;BMP280;75707;46.948;7.410;2024-02-26T01:34:21;934.4464111;;;7.705383301
85302;BMP280;75707;46.948;7.410;2024-02-26T01:35:21;934.425415;;;7.705383301
85302;BMP280;75707;46.948;7.410;2024-02-26T01:36:23;934.4070435;;;7.725524902
85302;BMP280;75707;46.948;7.410;2024-02-26T01:37:24;934.4070435;;;7.735595703
85302;BMP280;75707;46.948;7.410;2024-02-26T01:38:24;934.4069824;;;7.735595703
85302;BMP280;75707;46.948;7.410;2024-02-26T01:39:25;934.4255981;;;7.755737305
85302;BMP280;75707;46.948;7.410;2024-02-26T01:40:26;934.4143677;;;7.755737305
85302;BMP280;75707;46.948;7.410;2024-02-26T01:41:27;934.442627;;;7.765808105
85302;BMP280;75707;46.948;7.410;2024-02-26T01:42:28;934.4401855;;;7.735595703
85302;BMP280;75707;46.948;7.410;2024-02-26T01:43:29;934.4475098;;;7.735595703
85302;BMP280;75707;46.948;7.410;2024-02-26T01:44:30;934.4642334;;;7.725524902
85302;BMP280;75707;46.948;7.410;2024-02-26T01:45:31;934.4813232;;;7.735595703
85302;BMP280;75707;46.948;7.410;2024-02-26T01:46:31;934.4981079;;;7.685241699
85302;BMP280;75707;46.948;7.410;2024-02-26T01:47:32;934.482666;;;7.665100098
85302;BMP280;75707;46.948;7.410;2024-02-26T01:48:34;934.5020142;;;7.665100098
85302;BMP280;75707;46.948;7.410;2024-02-26T01:49:34;934.4666138;;;7.665100098
85302;BMP280;75707;46.948;7.410;2024-02-26T01:50:35;934.4818726;;;7.665100098
85302;BMP280;75707;46.948;7.410;2024-02-26T01:51:37;934.4963379;;;7.665100098
85302;BMP280;75707;46.948;7.410;2024-02-26T01:52:37;934.4615479;;;7.665100098
85302;BMP280;75707;46.948;7.410;2024-02-26T01:53:38;934.4880371;;;7.665100098
85302;BMP280;75707;46.948;7.410;2024-02-26T01:54:39;934.4873657;;;7.655029297
85302;BMP280;75707;46.948;7.410;2024-02-26T01:55:40;934.4823608;;;7.634887695
85302;BMP280;75707;46.948;7.410;2024-02-26T01:56:40;934.4865112;;;7.634887695
85302;BMP280;75707;46.948;7.410;2024-02-26T01:57:41;934.4838867;;;7.634887695
85302;BMP280;75707;46.948;7.410;2024-02-26T01:58:42;934.4298706;;;7.634887695
85302;BMP280;75707;46.948;7.410;2024-02-26T01:59:43;934.3782959;;;7.624816895
85302;BMP280;75707;46.948;7.410;2024-02-26T02:00:44;934.3380737;;;7.584533691
85302;BMP280;75707;46.948;7.410;2024-02-26T02:02:21;934.428894;;;7.544250488
85302;BMP280;75707;46.948;7.410;2024-02-26T02:03:22;934.4025269;;;7.554321289
85302;BMP280;75707;46.948;7.410;2024-02-26T02:04:23;934.3845215;;;7.514038086
85302;BMP280;75707;46.948;7.410;2024-02-26T02:05:24;934.4580688;;;7.524108887
85302;BMP280;75707;46.948;7.410;2024-02-26T02:06:25;934.4716187;;;7.514038086
85302;BMP280;75707;46.948;7.410;2024-02-26T02:08:21;934.4568481;;;7.514038086
85302;BMP280;75707;46.948;7.410;2024-02-26T02:09:22;934.4378052;;;7.514038086
85302;BMP280;75707;46.948;7.410;2024-02-26T02:10:23;934.4359131;;;7.524108887
85302;BMP280;75707;46.948;7.410;2024-02-26T02:11:24;934.4117432;;;7.524108887
85302;BMP280;75707;46.948;7.410;2024-02-26T02:12:25;934.4488525;;;7.544250488
85302;BMP280;75707;46.948;7.410;2024-02-26T02:13:26;934.4804688;;;7.554321289
85302;BMP280;75707;46.948;7.410;2024-02-26T02:14:27;934.4632568;;;7.524108887
85302;BMP280;75707;46.948;7.410;2024-02-26T02:15:28;934.4568481;;;7.554321289
85302;BMP280;75707;46.948;7.410;2024-02-26T02:16:29;934.4681396;;;7.544250488
85302;BMP280;75707;46.948;7.410;2024-02-26T02:17:30;934.4450073;;;7.483825684
85302;BMP280;75707;46.948;7.410;2024-02-26T02:18:30;934.4415894;;;7.453613281
85302;BMP280;75707;46.948;7.410;2024-02-26T02:19:31;934.4464111;;;7.373046875
85302;BMP280;75707;46.948;7.410;2024-02-26T02:20:32;934.3881836;;;7.393188477
85302;BMP280;75707;46.948;7.410;2024-02-26T02:21:33;934.4420166;;;7.373046875
85302;BMP280;75707;46.948;7.410;2024-02-26T02:22:34;934.4318848;;;7.362976074
85302;BMP280;75707;46.948;7.410;2024-02-26T02:23:35;934.3929443;;;7.342834473
85302;BMP280;75707;46.948;7.410;2024-02-26T02:24:36;934.3865356;;;7.332763672
85302;BMP280;75707;46.948;7.410;2024-02-26T02:25:37;934.4668579;;;7.332763672
85302;BMP280;75707;46.948;7.410;2024-02-26T02:26:37;934.4749756;;;7.342834473
85302;BMP280;75707;46.948;7.410;2024-02-26T02:27:39;934.4541626;;;7.362976074
85302;BMP280;75707;46.948;7.410;2024-02-26T02:28:39;934.4193726;;;7.373046875
85302;BMP280;75707;46.948;7.410;2024-02-26T02:29:40;934.4032593;;;7.373046875
85302;BMP280;75707;46.948;7.410;2024-02-26T02:30:41;934.3482056;;;7.393188477
85302;BMP280;75707;46.948;7.410;2024-02-26T02:31:42;934.3588867;;;7.393188477
85302;BMP280;75707;46.948;7.410;2024-02-26T02:32:43;934.3323975;;;7.393188477
85302;BMP280;75707;46.948;7.410;2024-02-26T02:34:21;934.3595581;;;7.423400879
85302;BMP280;75707;46.948;7.410;2024-02-26T02:35:22;934.3209229;;;7.44354248
85302;BMP280;75707;46.948;7.410;2024-02-26T02:36:23;934.3378906;;;7.44354248
85302;BMP280;75707;46.948;7.410;2024-02-26T02:37:24;934.3692017;;;7.473754883
85302;BMP280;75707;46.948;7.410;2024-02-26T02:38:25;934.4094238;;;7.483825684
85302;BMP280;75707;46.948;7.410;2024-02-26T02:39:26;934.4626465;;;7.483825684
85302;BMP280;75707;46.948;7.410;2024-02-26T02:41:21;934.482666;;;7.503967285
85302;BMP280;75707;46.948;7.410;2024-02-26T02:42:22;934.5222778;;;7.514038086
85302;BMP280;75707;46.948;7.410;2024-02-26T02:43:23;934.4852905;;;7.503967285
85302;BMP280;75707;46.948;7.410;2024-02-26T02:44:24;934.572876;;;7.503967285
85302;BMP280;75707;46.948;7.410;2024-02-26T02:45:25;934.5703125;;;7.514038086
85302;BMP280;75707;46.948;7.410;2024-02-26T02:46:26;934.4882202;;;7.453613281
85302;BMP280;75707;46.948;7.410;2024-02-26T02:47:27;934.4769287;;;7.453613281
85302;BMP280;75707;46.948;7.410;2024-02-26T02:48:27;934.4833374;;;7.44354248
85302;BMP280;75707;46.948;7.410;2024-02-26T02:49:29;934.5033569;;;7.423400879
85302;BMP280;75707;46.948;7.410;2024-02-26T02:50:29;934.491394;;;7.44354248
85302;BMP280;75707;46.948;7.410;2024-02-26T02:51:30;934.5050049;;;7.44354248
85302;BMP280;75707;46.948;7.410;2024-02-26T02:52:31;934.5187378;;;7.44354248
85302;BMP280;75707;46.948;7.410;2024-02-26T02:53:32;934.5123291;;;7.423400879
85302;BMP280;75707;46.948;7.410;2024-02-26T02:54:33;934.4874878;;;7.423400879
85302;BMP280;75707;46.948;7.410;2024-02-26T02:55:34;934.5123291;;;7.423400879
85302;BMP280;75707;46.948;7.410;2024-02-26T02:56:35;934.5059204;;;7.362976074
85302;BMP280;75707;46.948;7.410;2024-02-26T02:57:36;934.4785767;;;7.373046875
85302;BMP280;75707;46.948;7.410;2024-02-26T02:58:37;934.4918823;;;7.342834473
85302;BMP280;75707;46.948;7.410;2024-02-26T02:59:38;934.5215454;;;7.362976074
85302;BMP280;75707;46.948;7.410;2024-02-26T03:00:39;934.5151367;;;7.322692871
85302;BMP280;75707;46.948;7.410;2024-02-26T03:01:40;934.5345459;;;7.322692871
85302;BMP280;75707;46.948;7.410;2024-02-26T03:02:41;934.5278931;;;7.292480469
85302;BMP280;75707;46.948;7.410;2024-02-26T03:03:42;934.5237427;;;7.272338867
85302;BMP280;75707;46.948;7.410;2024-02-26T03:04:43;934.5309448;;;7.292480469
85302;BMP280;75707;46.948;7.410;2024-02-26T03:05:44;934.5490723;;;7.292480469
85302;BMP280;75707;46.948;7.410;2024-02-26T03:07:21;934.5845947;;;7.262268066
85302;BMP280;75707;46.948;7.410;2024-02-26T03:08:22;934.520874;;;7.272338867
85302;BMP280;75707;46.948;7.410;2024-02-26T03:09:23;934.5385742;;;7.292480469
85302;BMP280;75707;46.948;7.410;2024-02-26T03:10:24;934.5543823;;;7.292480469
85302;BMP280;75707;46.948;7.410;2024-02-26T03:11:25;934.5834351;;;7.292480469
85302;BMP280;75707;46.948;7.410;2024-02-26T03:13:21;934.5795898;;;7.322692871
85302;BMP280;75707;46.948;7.410;2024-02-26T03:14:22;934.5609131;;;7.272338867
85302;BMP280;75707;46.948;7.410;2024-02-26T03:15:23;934.5576782;;;7.292480469
85302;BMP280;75707;46.948;7.410;2024-02-26T03:16:24;934.5438843;;;7.272338867
85302;BMP280;75707;46.948;7.410;2024-02-26T03:17:25;934.5117188;;;7.262268066
85302;BMP280;75707;46.948;7.410;2024-02-26T03:18:25;934.5335693;;;7.292480469
85302;BMP280;75707;46.948;7.410;2024-02-26T03:19:26;934.5319824;;;7.272338867
85302;BMP280;75707;46.948;7.410;2024-02-26T03:20:27;934.5519409;;;7.292480469
85302;BMP280;75707;46.948;7.410;2024-02-26T03:21:28;934.5309448;;;7.292480469
85302;BMP280;75707;46.948;7.410;2024-02-26T03:22:29;934.5212402;;;7.262268066
85302;BMP280;75707;46.948;7.410;2024-02-26T03:23:30;934.4949341;;;7.242126465
85302;BMP280;75707;46.948;7.410;2024-02-26T03:24:31;934.4795532;;;7.232055664
85302;BMP280;75707;46.948;7.410;2024-02-26T03:25:32;934.5197144;;;7.211914063
85302;BMP280;75707;46.948;7.410;2024-02-26T03:26:33;934.4570313;;;7.211914063
85302;BMP280;75707;46.948;7.410;2024-02-26T03:27:34;934.4464111;;;7.161560059
85302;BMP280;75707;46.948;7.410;2024-02-26T03:28:35;934.4689331;;;7.151489258
85302;BMP280;75707;46.948;7.410;2024-02-26T03:29:36;934.468689;;;7.151489258
85302;BMP280;75707;46.948;7.410;2024-02-26T03:30:36;934.4177856;;;7.151489258
85302;BMP280;75707;46.948;7.410;2024-02-26T03:31:37;934.3728027;;;7.191772461
85302;BMP280;75707;46.948;7.410;2024-02-26T03:32:38;934.3792114;;;7.211914063
85302;BMP280;75707;46.948;7.410;2024-02-26T03:33:39;934.3850098;;;7.211914063
85302;BMP280;75707;46.948;7.410;2024-02-26T03:34:40;934.3406372;;;7.211914063
85302;BMP280;75707;46.948;7.410;2024-02-26T03:35:41;934.3615112;;;7.262268066
85302;BMP280;75707;46.948;7.410;2024-02-26T03:36:41;934.2584229;;;7.262268066
85302;BMP280;75707;46.948;7.410;2024-02-26T03:37:42;934.2062378;;;7.272338867
85302;BMP280;75707;46.948;7.410;2024-02-26T03:38:43;934.2296753;;;7.322692871
85302;BMP280;75707;46.948;7.410;2024-02-26T03:40:21;934.2715454;;;7.322692871
85302;BMP280;75707;46.948;7.410;2024-02-26T03:41:21;934.2651367;;;7.30255127
85302;BMP280;75707;46.948;7.410;2024-02-26T03:42:23;934.2242432;;;7.332763672
85302;BMP280;75707;46.948;7.410;2024-02-26T03:43:23;934.2443848;;;7.332763672
85302;BMP280;75707;46.948;7.410;2024-02-26T03:44:24;934.3168945;;;7.373046875
85302;BMP280;75707;46.948;7.410;2024-02-26T03:46:21;934.2788086;;;7.393188477
85302;BMP280;75707;46.948;7.410;2024-02-26T03:47:21;934.2572021;;;7.393188477
85302;BMP280;75707;46.948;7.410;2024-02-26T03:48:23;934.2379761;;;7.413330078
85302;BMP280;75707;46.948;7.410;2024-02-26T03:49:23;934.1621704;;;7.393188477
85302;BMP280;75707;46.948;7.410;2024-02-26T03:50:24;934.2034302;;;7.413330078
85302;BMP280;75707;46.948;7.410;2024-02-26T03:51:25;934.1986084;;;7.44354248
85302;BMP280;75707;46.948;7.410;2024-02-26T03:52:26;934.1746826;;;7.473754883
85302;BMP280;75707;46.948;7.410;2024-02-26T03:53:27;934.1762695;;;7.503967285
85302;BMP280;75707;46.948;7.410;2024-02-26T03:54:28;934.2157593;;;7.503967285
85302;BMP280;75707;46.948;7.410;2024-02-26T03:55:29;934.1554565;;;7.524108887
85302;BMP280;75707;46.948;7.410;2024-02-26T03:56:30;934.1394043;;;7.503967285
85302;BMP280;75707;46.948;7.410;2024-02-26T03:57:31;934.133728;;;7.514038086
85302;BMP280;75707;46.948;7.410;2024-02-26T03:58:31;934.1668701;;;7.514038086
85302;BMP280;75707;46.948;7.410;2024-02-26T03:59:32;934.2232666;;;7.524108887
85302;BMP280;75707;46.948;7.410;2024-02-26T04:00:33;934.1436768;;;7.483825684
85302;BMP280;75707;46.948;7.410;2024-02-26T04:01:34;934.1777954;;;7.453613281
85302;BMP280;75707;46.948;7.410;2024-02-26T04:02:35;934.2338257;;;7.393188477
85302;BMP280;75707;46.948;7.410;2024-02-26T04:03:36;934.3166504;;;7.362976074
85302;BMP280;75707;46.948;7.410;2024-02-26T04:04:37;934.3498535;;;7.342834473
85302;BMP280;75707;46.948;7.410;2024-02-26T04:05:38;934.4342041;;;7.332763672
85302;BMP280;75707;46.948;7.410;2024-02-26T04:06:38;934.3537598;;;7.373046875
85302;BMP280;75707;46.948;7.410;2024-02-26T04:07:39;934.3464355;;;7.342834473
85302;BMP280;75707;46.948;7.410;2024-02-26T04:08:40;934.3560791;;;7.342834473
85302;BMP280;75707;46.948;7.410;2024-02-26T04:09:41;934.4542847;;;7.322692871
85302;BMP280;75707;46.948;7.410;2024-02-26T04:10:42;934.492981;;;7.322692871
85302;BMP280;75707;46.948;7.410;2024-02-26T04:11:43;934.4359131;;;7.322692871
85302;BMP280;75707;46.948;7.410;2024-02-26T04:13:20;934.3970337;;;7.332763672
85302;BMP280;75707;46.948;7.410;2024-02-26T04:14:20;934.4333496;;;7.342834473
85302;BMP280;75707;46.948;7.410;2024-02-26T04:15:21;934.4140625;;;7.342834473
85302;BMP280;75707;46.948;7.410;2024-02-26T04:16:22;934.4182739;;;7.342834473
85302;BMP280;75707;46.948;7.410;2024-02-26T04:17:23;934.4553223;;;7.342834473
85302;BMP280;75707;46.948;7.410;2024-02-26T04:19:19;934.4034424;;;7.342834473
85302;BMP280;75707;46.948;7.410;2024-02-26T04:20:20;934.4018555;;;7.332763672
85302;BMP280;75707;46.948;7.410;2024-02-26T04:21:21;934.3786011;;;7.362976074
85302;BMP280;75707;46.948;7.410;2024-02-26T04:22:22;934.345459;;;7.393188477
85302;BMP280;75707;46.948;7.410;2024-02-26T04:23:23;934.3937378;;;7.413330078
85302;BMP280;75707;46.948;7.410;2024-02-26T04:24:24;934.3261719;;;7.413330078
85302;BMP280;75707;46.948;7.410;2024-02-26T04:25:25;934.3061523;;;7.423400879
85302;BMP280;75707;46.948;7.410;2024-02-26T04:26:26;934.2926636;;;7.413330078
85302;BMP280;75707;46.948;7.410;2024-02-26T04:27:27;934.2572021;;;7.413330078
85302;BMP280;75707;46.948;7.410;2024-02-26T04:28:28;934.1837769;;;7.373046875
85302;BMP280;75707;46.948;7.410;2024-02-26T04:29:29;934.1154785;;;7.342834473
85302;BMP280;75707;46.948;7.410;2024-02-26T04:30:30;934.0990601;;;7.332763672
85302;BMP280;75707;46.948;7.410;2024-02-26T04:31:30;934.1612549;;;7.322692871
85302;BMP280;75707;46.948;7.410;2024-02-26T04:32:31;934.1834106;;;7.242126465
85302;BMP280;75707;46.948;7.410;2024-02-26T04:33:33;934.2479858;;;7.211914063
85302;BMP280;75707;46.948;7.410;2024-02-26T04:34:33;934.3001709;;;7.161560059
85302;BMP280;75707;46.948;7.410;2024-02-26T04:35:34;934.2525024;;;7.141418457
85302;BMP280;75707;46.948;7.410;2024-02-26T04:36:35;934.2106934;;;7.141418457
85302;BMP280;75707;46.948;7.410;2024-02-26T04:37:36;934.2824707;;;7.141418457
85302;BMP280;75707;46.948;7.410;2024-02-26T04:38:37;934.3998413;;;7.151489258
85302;BMP280;75707;46.948;7.410;2024-02-26T04:39:38;934.3879395;;;7.151489258
85302;BMP280;75707;46.948;7.410;2024-02-26T04:40:38;934.3918457;;;7.18170166
85302;BMP280;75707;46.948;7.410;2024-02-26T04:41:39;934.3612671;;;7.161560059
85302;BMP280;75707;46.948;7.410;2024-02-26T04:42:40;934.3023682;;;7.191772461
85302;BMP280;75707;46.948;7.410;2024-02-26T04:43:41;934.3386841;;;7.232055664
85302;BMP280;75707;46.948;7.410;2024-02-26T04:44:42;934.3096924;;;7.211914063
85302;BMP280;75707;46.948;7.410;2024-02-26T04:45:43;934.2693481;;;7.232055664
85302;BMP280;75707;46.948;7.410;2024-02-26T04:46:44;934.3652954;;;7.262268066
85302;BMP280;75707;46.948;7.410;2024-02-26T04:48:19;934.3485718;;;7.272338867
85302;BMP280;75707;46.948;7.410;2024-02-26T04:49:20;934.3428345;;;7.272338867
85302;BMP280;75707;46.948;7.410;2024-02-26T04:50:21;934.3839111;;;7.30255127
85302;BMP280;75707;46.948;7.410;2024-02-26T04:52:19;934.3936157;;;7.332763672
85302;BMP280;75707;46.948;7.410;2024-02-26T04:53:20;934.4373169;;;7.332763672
85302;BMP280;75707;46.948;7.410;2024-02-26T04:54:21;934.435791;;;7.332763672
85302;BMP280;75707;46.948;7.410;2024-02-26T04:55:22;934.4854126;;;7.342834473
85302;BMP280;75707;46.948;7.410;2024-02-26T04:56:23;934.5291138;;;7.342834473
85302;BMP280;75707;46.948;7.410;2024-02-26T04:57:24;934.5797729;;;7.373046875
85302;BMP280;75707;46.948;7.410;2024-02-26T04:58:24;934.5516357;;;7.413330078
85302;BMP280;75707;46.948;7.410;2024-02-26T04:59:25;934.5404053;;;7.393188477
85302;BMP280;75707;46.948;7.410;2024-02-26T05:00:26;934.524292;;;7.362976074
85302;BMP280;75707;46.948;7.410;2024-02-26T05:01:27;934.5307617;;;7.342834473
85302;BMP280;75707;46.948;7.410;2024-02-26T05:02:28;934.4846802;;;7.332763672
85302;BMP280;75707;46.948;7.410;2024-02-26T05:03:29;934.4196167;;;7.30255127
85302;BMP280;75707;46.948;7.410;2024-02-26T05:04:30;934.4074097;;;7.322692871
85302;BMP280;75707;46.948;7.410;2024-02-26T05:05:31;934.399292;;;7.342834473
85302;BMP280;75707;46.948;7.410;2024-02-26T05:06:32;934.425415;;;7.322692871
85302;BMP280;75707;46.948;7.410;2024-02-26T05:07:32;934.3786621;;;7.322692871
85302;BMP280;75707;46.948;7.410;2024-02-26T05:08:33;934.3937988;;;7.362976074
85302;BMP280;75707;46.948;7.410;2024-02-26T05:09:34;934.4204712;;;7.332763672
85302;BMP280;75707;46.948;7.410;2024-02-26T05:10:35;934.4832764;;;7.373046875
85302;BMP280;75707;46.948;7.410;2024-02-26T05:11:36;934.500061;;;7.342834473
85302;BMP280;75707;46.948;7.410;2024-02-26T05:12:37;934.4993896;;;7.342834473
85302;BMP280;75707;46.948;7.410;2024-02-26T05:13:37;934.4743652;;;7.322692871
85302;BMP280;75707;46.948;7.410;2024-02-26T05:14:38;934.4810791;;;7.362976074
85302;BMP280;75707;46.948;7.410;2024-02-26T05:15:39;934.4955444;;;7.332763672
85302;BMP280;75707;46.948;7.410;2024-02-26T05:16:40;934.5220337;;;7.322692871
85302;BMP280;75707;46.948;7.410;2024-02-26T05:17:41;934.5332642;;;7.332763672
85302;BMP280;75707;46.948;7.410;2024-02-26T05:18:42;934.5999146;;;7.332763672
85302;BMP280;75707;46.948;7.410;2024-02-26T05:19:43;934.524292;;;7.292480469
85302;BMP280;75707;46.948;7.410;2024-02-26T05:21:19;934.5065918;;;7.262268066
85302;BMP280;75707;46.948;7.410;2024-02-26T05:22:19;934.5259399;;;7.272338867
85302;BMP280;75707;46.948;7.410;2024-02-26T05:23:20;934.6166992;;;7.272338867
85302;BMP280;75707;46.948;7.410;2024-02-26T05:24:21;934.6257935;;;7.272338867
85302;BMP280;75707;46.948;7.410;2024-02-26T05:25:22;934.5758667;;;7.242126465
85302;BMP280;75707;46.948;7.410;2024-02-26T05:27:19;934.5443726;;;7.242126465